sensor_id;sensor_type;location;lat;lon;timestamp;pressure;altitude;pressure_sealevel;temperature;humidity
62978;BME280;49073;42.352;23.808;2023-10-13T00:01:59;95210.84;;;9.02;79.12
62978;BME280;49073;42.352;23.808;2023-10-13T00:05:01;95207.63;;;9.09;78.53
62978;BME280;49073;42.352;23.808;2023-10-13T00:08:02;95202.56;;;9.28;77.47
62978;BME280;49073;42.352;23.808;2023-10-13T00:11:04;95201.41;;;9.05;77.73
62978;BME280;49073;42.352;23.808;2023-10-13T00:14:05;95207.53;;;9.05;78.04
62978;BME280;49073;42.352;23.808;2023-10-13T00:17:09;95195.78;;;8.94;78.37
62978;BME280;49073;42.352;23.808;2023-10-13T00:20:19;95193.00;;;9.02;77.75
62978;BME280;49073;42.352;23.808;2023-10-13T00:23:42;95186.47;;;9.00;77.18
62978;BME280;49073;42.352;23.808;2023-10-13T00:26:55;95181.16;;;8.87;77.28
62978;BME280;49073;42.352;23.808;2023-10-13T00:29:57;95190.41;;;8.81;78.02
62978;BME280;49073;42.352;23.808;2023-10-13T00:33:16;95188.13;;;8.92;77.76
62978;BME280;49073;42.352;23.808;2023-10-13T00:36:20;95180.72;;;8.98;77.08
62978;BME280;49073;42.352;23.808;2023-10-13T00:39:21;95172.09;;;9.01;76.72
62978;BME280;49073;42.352;23.808;2023-10-13T00:42:23;95184.91;;;8.86;76.94
62978;BME280;49073;42.352;23.808;2023-10-13T00:45:52;95181.19;;;8.66;77.94
62978;BME280;49073;42.352;23.808;2023-10-13T00:49:06;95175.88;;;8.66;78.66
62978;BME280;49073;42.352;23.808;2023-10-13T00:52:09;95169.13;;;8.69;78.31
62978;BME280;49073;42.352;23.808;2023-10-13T00:55:13;95177.53;;;8.71;78.22
62978;BME280;49073;42.352;23.808;2023-10-13T00:58:14;95165.09;;;8.50;79.24
62978;BME280;49073;42.352;23.808;2023-10-13T01:01:22;95172.44;;;8.44;80.51
62978;BME280;49073;42.352;23.808;2023-10-13T01:04:22;95161.97;;;8.48;80.53
62978;BME280;49073;42.352;23.808;2023-10-13T01:07:27;95167.84;;;8.54;80.36
62978;BME280;49073;42.352;23.808;2023-10-13T01:10:28;95170.00;;;8.61;80.03
62978;BME280;49073;42.352;23.808;2023-10-13T01:13:33;95167.47;;;8.64;79.83
62978;BME280;49073;42.352;23.808;2023-10-13T01:16:38;95163.38;;;8.67;79.54
62978;BME280;49073;42.352;23.808;2023-10-13T01:19:44;95171.34;;;8.67;79.37
62978;BME280;49073;42.352;23.808;2023-10-13T01:22:46;95164.69;;;8.61;79.18
62978;BME280;49073;42.352;23.808;2023-10-13T01:25:55;95168.00;;;8.57;79.21
62978;BME280;49073;42.352;23.808;2023-10-13T01:28:57;95164.00;;;8.51;79.60
62978;BME280;49073;42.352;23.808;2023-10-13T01:31:59;95162.28;;;8.47;80.23
62978;BME280;49073;42.352;23.808;2023-10-13T01:34:59;95170.13;;;8.43;80.07
62978;BME280;49073;42.352;23.808;2023-10-13T01:38:06;95173.25;;;8.45;79.23
62978;BME280;49073;42.352;23.808;2023-10-13T01:41:06;95170.34;;;8.38;79.46
62978;BME280;49073;42.352;23.808;2023-10-13T01:44:09;95170.47;;;8.20;80.15
62978;BME280;49073;42.352;23.808;2023-10-13T01:47:13;95172.16;;;8.25;80.98
62978;BME280;49073;42.352;23.808;2023-10-13T01:50:13;95170.28;;;8.25;80.88
62978;BME280;49073;42.352;23.808;2023-10-13T01:53:19;95182.25;;;8.53;79.78
62978;BME280;49073;42.352;23.808;2023-10-13T01:56:20;95170.69;;;8.49;nan
62978;BME280;49073;42.352;23.808;2023-10-13T01:59:23;95173.75;;;8.38;79.23
62978;BME280;49073;42.352;23.808;2023-10-13T02:02:24;95172.22;;;8.16;80.40
62978;BME280;49073;42.352;23.808;2023-10-13T02:05:30;95171.00;;;8.13;80.76
62978;BME280;49073;42.352;23.808;2023-10-13T02:08:36;95169.44;;;8.12;81.24
62978;BME280;49073;42.352;23.808;2023-10-13T02:11:44;95168.00;;;8.15;81.49
62978;BME280;49073;42.352;23.808;2023-10-13T02:14:47;95168.72;;;8.24;80.62
62978;BME280;49073;42.352;23.808;2023-10-13T02:17:48;95163.28;;;8.21;80.93
62978;BME280;49073;42.352;23.808;2023-10-13T02:20:56;95175.78;;;8.20;81.74
62978;BME280;49073;42.352;23.808;2023-10-13T02:24:07;95171.19;;;8.29;81.25
62978;BME280;49073;42.352;23.808;2023-10-13T02:27:13;95166.56;;;8.39;80.42
62978;BME280;49073;42.352;23.808;2023-10-13T02:30:14;95163.28;;;8.42;79.41
62978;BME280;49073;42.352;23.808;2023-10-13T02:33:15;95168.91;;;8.19;79.86
62978;BME280;49073;42.352;23.808;2023-10-13T02:36:22;95156.38;;;8.07;80.72
62978;BME280;49073;42.352;23.808;2023-10-13T02:39:23;95163.56;;;8.07;81.19
62978;BME280;49073;42.352;23.808;2023-10-13T02:42:28;95160.97;;;7.98;81.89
62978;BME280;49073;42.352;23.808;2023-10-13T02:45:28;95153.84;;;8.11;83.32
62978;BME280;49073;42.352;23.808;2023-10-13T02:48:29;95160.94;;;8.19;80.86
62978;BME280;49073;42.352;23.808;2023-10-13T02:51:42;95149.38;;;8.03;80.94
62978;BME280;49073;42.352;23.808;2023-10-13T02:54:42;95160.44;;;7.83;81.62
62978;BME280;49073;42.352;23.808;2023-10-13T02:57:47;95153.19;;;7.93;82.00
62978;BME280;49073;42.352;23.808;2023-10-13T03:00:49;95160.44;;;8.05;81.94
62978;BME280;49073;42.352;23.808;2023-10-13T03:03:50;95154.63;;;8.11;81.00
62978;BME280;49073;42.352;23.808;2023-10-13T03:06:55;95149.63;;;8.10;80.74
62978;BME280;49073;42.352;23.808;2023-10-13T03:09:59;95154.19;;;8.09;80.61
62978;BME280;49073;42.352;23.808;2023-10-13T03:13:02;95151.38;;;8.06;81.16
62978;BME280;49073;42.352;23.808;2023-10-13T03:16:15;95144.00;;;7.90;81.80
62978;BME280;49073;42.352;23.808;2023-10-13T03:19:16;95142.72;;;7.96;81.97
62978;BME280;49073;42.352;23.808;2023-10-13T03:22:19;95144.06;;;8.03;81.19
62978;BME280;49073;42.352;23.808;2023-10-13T03:25:30;95148.06;;;8.09;80.28
62978;BME280;49073;42.352;23.808;2023-10-13T03:28:37;95147.25;;;7.96;80.72
62978;BME280;49073;42.352;23.808;2023-10-13T03:31:38;95141.63;;;7.97;80.57
62978;BME280;49073;42.352;23.808;2023-10-13T03:34:39;95149.06;;;7.83;80.25
62978;BME280;49073;42.352;23.808;2023-10-13T03:37:53;95141.94;;;7.75;81.49
62978;BME280;49073;42.352;23.808;2023-10-13T03:40:57;95146.47;;;7.74;81.86
62978;BME280;49073;42.352;23.808;2023-10-13T03:44:20;95141.75;;;7.80;81.81
62978;BME280;49073;42.352;23.808;2023-10-13T03:47:21;95144.41;;;7.80;81.71
62978;BME280;49073;42.352;23.808;2023-10-13T03:50:32;95155.03;;;7.80;81.60
62978;BME280;49073;42.352;23.808;2023-10-13T03:53:36;95149.56;;;7.76;81.34
62978;BME280;49073;42.352;23.808;2023-10-13T03:56:50;95138.97;;;7.76;81.80
62978;BME280;49073;42.352;23.808;2023-10-13T03:59:56;95144.47;;;7.71;81.63
62978;BME280;49073;42.352;23.808;2023-10-13T04:02:57;95150.56;;;7.71;82.10
62978;BME280;49073;42.352;23.808;2023-10-13T04:06:06;95148.81;;;7.76;81.90
62978;BME280;49073;42.352;23.808;2023-10-13T04:09:06;95162.53;;;7.78;81.82
62978;BME280;49073;42.352;23.808;2023-10-13T04:12:25;95158.31;;;7.77;81.91
62978;BME280;49073;42.352;23.808;2023-10-13T04:15:49;95158.81;;;7.70;82.26
62978;BME280;49073;42.352;23.808;2023-10-13T04:19:08;95153.06;;;7.68;82.80
62978;BME280;49073;42.352;23.808;2023-10-13T04:22:09;95149.34;;;7.60;83.76
62978;BME280;49073;42.352;23.808;2023-10-13T04:25:25;95146.25;;;7.79;83.05
62978;BME280;49073;42.352;23.808;2023-10-13T04:28:35;95146.41;;;7.83;82.82
62978;BME280;49073;42.352;23.808;2023-10-13T04:31:38;95151.47;;;7.76;82.42
62978;BME280;49073;42.352;23.808;2023-10-13T04:34:58;95146.47;;;7.74;82.99
62978;BME280;49073;42.352;23.808;2023-10-13T04:38:22;95139.50;;;7.69;83.88
62978;BME280;49073;42.352;23.808;2023-10-13T04:41:40;95137.00;;;7.85;83.34
62978;BME280;49073;42.352;23.808;2023-10-13T04:44:57;95123.38;;;7.75;83.04
62978;BME280;49073;42.352;23.808;2023-10-13T04:48:04;95134.00;;;7.75;83.83
62978;BME280;49073;42.352;23.808;2023-10-13T04:51:20;95129.13;;;7.77;83.52
62978;BME280;49073;42.352;23.808;2023-10-13T04:54:44;95133.59;;;7.85;84.41
62978;BME280;49073;42.352;23.808;2023-10-13T04:57:45;95135.06;;;7.95;84.07
62978;BME280;49073;42.352;23.808;2023-10-13T05:00:45;95141.00;;;8.13;82.90
62978;BME280;49073;42.352;23.808;2023-10-13T05:04:15;95137.22;;;8.01;83.29
62978;BME280;49073;42.352;23.808;2023-10-13T05:07:39;95140.97;;;8.00;84.01
62978;BME280;49073;42.352;23.808;2023-10-13T05:11:03;95137.28;;;7.93;85.06
62978;BME280;49073;42.352;23.808;2023-10-13T05:14:22;95142.81;;;8.21;84.84
62978;BME280;49073;42.352;23.808;2023-10-13T05:17:42;95150.66;;;8.39;86.28
62978;BME280;49073;42.352;23.808;2023-10-13T05:21:01;95145.22;;;8.48;87.01
62978;BME280;49073;42.352;23.808;2023-10-13T05:24:20;95158.41;;;8.65;86.90
62978;BME280;49073;42.352;23.808;2023-10-13T05:27:39;95165.81;;;8.72;86.95
62978;BME280;49073;42.352;23.808;2023-10-13T05:31:02;95175.13;;;8.78;85.14
62978;BME280;49073;42.352;23.808;2023-10-13T05:34:21;95168.47;;;8.72;85.41
62978;BME280;49073;42.352;23.808;2023-10-13T05:37:40;95174.81;;;8.92;85.05
62978;BME280;49073;42.352;23.808;2023-10-13T05:41:01;95171.97;;;9.10;85.30
62978;BME280;49073;42.352;23.808;2023-10-13T05:44:20;95182.72;;;9.13;85.65
62978;BME280;49073;42.352;23.808;2023-10-13T05:47:54;95178.19;;;9.39;84.82
62978;BME280;49073;42.352;23.808;2023-10-13T05:51:11;95186.50;;;9.62;86.40
62978;BME280;49073;42.352;23.808;2023-10-13T05:54:30;95182.84;;;9.79;84.88
62978;BME280;49073;42.352;23.808;2023-10-13T05:57:49;95182.69;;;9.88;82.41
62978;BME280;49073;42.352;23.808;2023-10-13T06:01:12;95188.91;;;10.04;82.95
62978;BME280;49073;42.352;23.808;2023-10-13T06:04:50;95183.41;;;10.13;84.66
62978;BME280;49073;42.352;23.808;2023-10-13T06:08:09;95188.38;;;10.27;84.41
62978;BME280;49073;42.352;23.808;2023-10-13T06:11:28;95195.25;;;10.28;84.07
62978;BME280;49073;42.352;23.808;2023-10-13T06:14:47;95195.34;;;10.44;84.12
62978;BME280;49073;42.352;23.808;2023-10-13T06:18:06;95194.63;;;10.60;82.24
62978;BME280;49073;42.352;23.808;2023-10-13T06:21:25;95204.53;;;10.75;81.29
62978;BME280;49073;42.352;23.808;2023-10-13T06:24:44;95211.03;;;10.90;81.33
62978;BME280;49073;42.352;23.808;2023-10-13T06:28:03;95215.25;;;11.08;79.26
62978;BME280;49073;42.352;23.808;2023-10-13T06:31:22;95209.84;;;11.36;76.27
62978;BME280;49073;42.352;23.808;2023-10-13T06:34:23;95208.63;;;11.49;73.83
62978;BME280;49073;42.352;23.808;2023-10-13T06:37:37;95210.03;;;11.59;73.45
62978;BME280;49073;42.352;23.808;2023-10-13T06:40:45;95210.88;;;11.79;73.61
62978;BME280;49073;42.352;23.808;2023-10-13T06:43:48;95218.13;;;11.99;73.41
62978;BME280;49073;42.352;23.808;2023-10-13T06:46:59;95217.63;;;12.09;75.22
62978;BME280;49073;42.352;23.808;2023-10-13T06:50:04;95216.94;;;12.12;76.11
62978;BME280;49073;42.352;23.808;2023-10-13T06:53:15;95227.81;;;12.23;77.28
62978;BME280;49073;42.352;23.808;2023-10-13T06:56:17;95219.94;;;12.30;75.38
62978;BME280;49073;42.352;23.808;2023-10-13T06:59:22;95222.16;;;12.44;74.28
62978;BME280;49073;42.352;23.808;2023-10-13T07:02:26;95217.03;;;12.55;74.25
62978;BME280;49073;42.352;23.808;2023-10-13T07:05:38;95216.16;;;12.71;73.67
62978;BME280;49073;42.352;23.808;2023-10-13T07:08:38;95220.22;;;12.84;74.26
62978;BME280;49073;42.352;23.808;2023-10-13T07:11:39;95215.38;;;12.90;73.07
62978;BME280;49073;42.352;23.808;2023-10-13T07:14:46;95210.28;;;13.04;72.64
62978;BME280;49073;42.352;23.808;2023-10-13T07:17:58;95210.16;;;13.20;72.21
62978;BME280;49073;42.352;23.808;2023-10-13T07:21:08;95214.31;;;13.41;73.32
62978;BME280;49073;42.352;23.808;2023-10-13T07:24:13;95212.34;;;13.85;69.91
62978;BME280;49073;42.352;23.808;2023-10-13T07:27:18;95207.88;;;14.23;69.14
62978;BME280;49073;42.352;23.808;2023-10-13T07:30:26;95213.03;;;14.39;69.28
62978;BME280;49073;42.352;23.808;2023-10-13T07:33:27;95198.63;;;14.47;68.22
62978;BME280;49073;42.352;23.808;2023-10-13T07:36:27;95197.19;;;14.57;69.29
62978;BME280;49073;42.352;23.808;2023-10-13T07:39:39;95194.03;;;14.82;67.41
62978;BME280;49073;42.352;23.808;2023-10-13T07:42:40;95178.72;;;15.27;65.72
62978;BME280;49073;42.352;23.808;2023-10-13T07:45:41;95175.63;;;15.74;62.85
62978;BME280;49073;42.352;23.808;2023-10-13T07:48:42;95182.44;;;16.24;61.47
62978;BME280;49073;42.352;23.808;2023-10-13T07:51:46;95183.34;;;16.50;61.36
62978;BME280;49073;42.352;23.808;2023-10-13T07:54:50;95192.59;;;16.67;60.31
62978;BME280;49073;42.352;23.808;2023-10-13T07:58:00;95182.25;;;16.76;61.12
62978;BME280;49073;42.352;23.808;2023-10-13T08:01:07;95183.88;;;16.99;58.31
62978;BME280;49073;42.352;23.808;2023-10-13T08:04:11;95165.44;;;17.48;56.46
62978;BME280;49073;42.352;23.808;2023-10-13T08:07:12;95168.09;;;17.84;55.38
62978;BME280;49073;42.352;23.808;2023-10-13T08:10:14;95163.06;;;17.97;54.13
62978;BME280;49073;42.352;23.808;2023-10-13T08:13:17;95157.25;;;18.17;54.78
62978;BME280;49073;42.352;23.808;2023-10-13T08:16:28;95152.47;;;18.57;51.92
62978;BME280;49073;42.352;23.808;2023-10-13T08:19:52;95146.84;;;18.94;47.02
62978;BME280;49073;42.352;23.808;2023-10-13T08:22:52;95145.53;;;19.20;41.75
62978;BME280;49073;42.352;23.808;2023-10-13T08:26:12;95148.06;;;19.42;43.52
62978;BME280;49073;42.352;23.808;2023-10-13T08:29:32;95153.41;;;19.49;42.54
62978;BME280;49073;42.352;23.808;2023-10-13T08:32:52;95144.66;;;19.76;40.83
62978;BME280;49073;42.352;23.808;2023-10-13T08:35:57;95137.56;;;19.89;40.49
62978;BME280;49073;42.352;23.808;2023-10-13T08:39:16;95137.63;;;19.86;39.61
62978;BME280;49073;42.352;23.808;2023-10-13T08:42:38;95141.31;;;20.03;39.17
62978;BME280;49073;42.352;23.808;2023-10-13T08:45:42;95142.53;;;20.33;39.66
62978;BME280;49073;42.352;23.808;2023-10-13T08:48:43;95147.16;;;20.32;38.53
62978;BME280;49073;42.352;23.808;2023-10-13T08:51:47;95143.22;;;20.41;39.45
62978;BME280;49073;42.352;23.808;2023-10-13T08:54:49;95149.31;;;20.48;40.02
62978;BME280;49073;42.352;23.808;2023-10-13T08:58:03;95148.16;;;20.77;37.78
62978;BME280;49073;42.352;23.808;2023-10-13T09:01:13;95157.03;;;20.81;37.88
62978;BME280;49073;42.352;23.808;2023-10-13T09:04:31;95158.19;;;21.07;37.28
62978;BME280;49073;42.352;23.808;2023-10-13T09:07:31;95156.63;;;21.10;38.08
62978;BME280;49073;42.352;23.808;2023-10-13T09:10:35;95165.81;;;21.16;38.42
62978;BME280;49073;42.352;23.808;2023-10-13T09:13:44;95166.44;;;21.28;38.35
62978;BME280;49073;42.352;23.808;2023-10-13T09:16:45;95165.38;;;21.45;37.99
62978;BME280;49073;42.352;23.808;2023-10-13T09:19:50;95170.63;;;21.56;38.28
62978;BME280;49073;42.352;23.808;2023-10-13T09:22:56;95168.88;;;21.70;37.86
62978;BME280;49073;42.352;23.808;2023-10-13T09:26:05;95169.56;;;21.74;37.97
62978;BME280;49073;42.352;23.808;2023-10-13T09:29:22;95169.81;;;21.83;38.74
62978;BME280;49073;42.352;23.808;2023-10-13T09:32:24;95169.97;;;21.96;37.50
62978;BME280;49073;42.352;23.808;2023-10-13T09:35:26;95166.38;;;22.03;38.05
62978;BME280;49073;42.352;23.808;2023-10-13T09:38:28;95165.06;;;22.31;38.03
62978;BME280;49073;42.352;23.808;2023-10-13T09:41:29;95157.00;;;22.48;37.27
62978;BME280;49073;42.352;23.808;2023-10-13T09:44:32;95139.78;;;22.34;36.48
62978;BME280;49073;42.352;23.808;2023-10-13T09:47:35;95152.03;;;22.63;36.49
62978;BME280;49073;42.352;23.808;2023-10-13T09:50:42;95159.53;;;22.75;36.65
62978;BME280;49073;42.352;23.808;2023-10-13T09:53:55;95150.47;;;22.82;37.27
62978;BME280;49073;42.352;23.808;2023-10-13T09:57:10;95144.47;;;23.07;36.92
62978;BME280;49073;42.352;23.808;2023-10-13T10:00:19;95136.16;;;23.15;35.97
62978;BME280;49073;42.352;23.808;2023-10-13T10:03:45;95132.38;;;23.29;34.86
62978;BME280;49073;42.352;23.808;2023-10-13T10:06:58;95124.41;;;23.51;32.94
62978;BME280;49073;42.352;23.808;2023-10-13T10:10:03;95125.19;;;23.51;33.34
62978;BME280;49073;42.352;23.808;2023-10-13T10:13:57;95127.47;;;23.53;32.94
62978;BME280;49073;42.352;23.808;2023-10-13T10:19:52;95109.16;;;23.24;34.16
62978;BME280;49073;42.352;23.808;2023-10-13T10:22:59;95114.72;;;23.50;33.97
62978;BME280;49073;42.352;23.808;2023-10-13T10:26:09;95122.03;;;23.53;32.97
62978;BME280;49073;42.352;23.808;2023-10-13T10:29:14;95118.25;;;23.34;33.96
62978;BME280;49073;42.352;23.808;2023-10-13T10:32:15;95112.69;;;23.21;33.49
62978;BME280;49073;42.352;23.808;2023-10-13T10:35:22;95118.63;;;23.49;33.54
62978;BME280;49073;42.352;23.808;2023-10-13T10:38:23;95108.69;;;23.59;33.15
62978;BME280;49073;42.352;23.808;2023-10-13T10:41:28;95103.00;;;23.53;32.78
62978;BME280;49073;42.352;23.808;2023-10-13T10:44:45;95100.28;;;23.53;34.18
62978;BME280;49073;42.352;23.808;2023-10-13T10:47:48;95106.13;;;23.68;33.19
62978;BME280;49073;42.352;23.808;2023-10-13T10:50:51;95106.84;;;23.85;33.04
62978;BME280;49073;42.352;23.808;2023-10-13T10:53:55;95112.69;;;24.00;32.90
62978;BME280;49073;42.352;23.808;2023-10-13T10:56:59;95098.16;;;23.90;32.43
62978;BME280;49073;42.352;23.808;2023-10-13T11:00:21;95099.84;;;24.01;33.18
62978;BME280;49073;42.352;23.808;2023-10-13T11:03:25;95103.47;;;24.10;32.59
62978;BME280;49073;42.352;23.808;2023-10-13T11:06:26;95084.88;;;24.22;33.07
62978;BME280;49073;42.352;23.808;2023-10-13T11:09:28;95092.84;;;24.29;32.46
62978;BME280;49073;42.352;23.808;2023-10-13T11:12:37;95082.59;;;24.20;32.28
62978;BME280;49073;42.352;23.808;2023-10-13T11:15:43;95088.81;;;24.34;31.95
62978;BME280;49073;42.352;23.808;2023-10-13T11:18:47;95089.06;;;24.52;31.51
62978;BME280;49073;42.352;23.808;2023-10-13T11:21:48;95069.78;;;24.47;32.13
62978;BME280;49073;42.352;23.808;2023-10-13T11:24:48;95083.72;;;24.49;31.86
62978;BME280;49073;42.352;23.808;2023-10-13T11:27:49;95081.53;;;24.57;31.22
62978;BME280;49073;42.352;23.808;2023-10-13T11:30:50;95083.50;;;24.56;31.86
62978;BME280;49073;42.352;23.808;2023-10-13T11:33:50;95079.50;;;24.74;31.43
62978;BME280;49073;42.352;23.808;2023-10-13T11:36:52;95077.06;;;24.63;30.98
62978;BME280;49073;42.352;23.808;2023-10-13T11:39:53;95071.19;;;24.51;30.99
62978;BME280;49073;42.352;23.808;2023-10-13T11:42:53;95070.63;;;24.44;31.53
62978;BME280;49073;42.352;23.808;2023-10-13T11:45:58;95066.59;;;24.35;31.38
62978;BME280;49073;42.352;23.808;2023-10-13T11:49:11;95074.09;;;24.31;31.64
62978;BME280;49073;42.352;23.808;2023-10-13T11:52:18;95074.53;;;24.30;31.77
62978;BME280;49073;42.352;23.808;2023-10-13T11:55:19;95063.66;;;24.30;31.92
62978;BME280;49073;42.352;23.808;2023-10-13T11:58:20;95066.13;;;24.24;31.07
62978;BME280;49073;42.352;23.808;2023-10-13T12:01:21;95070.28;;;24.29;31.90
62978;BME280;49073;42.352;23.808;2023-10-13T12:04:41;95065.59;;;24.29;31.43
62978;BME280;49073;42.352;23.808;2023-10-13T12:07:51;95065.91;;;24.31;31.97
62978;BME280;49073;42.352;23.808;2023-10-13T12:10:52;95067.72;;;24.51;31.68
62978;BME280;49073;42.352;23.808;2023-10-13T12:14:22;95057.00;;;24.57;30.60
62978;BME280;49073;42.352;23.808;2023-10-13T12:17:30;95058.66;;;24.54;30.87
62978;BME280;49073;42.352;23.808;2023-10-13T12:20:39;95063.78;;;24.52;30.94
62978;BME280;49073;42.352;23.808;2023-10-13T12:23:45;95063.34;;;24.53;31.37
62978;BME280;49073;42.352;23.808;2023-10-13T12:26:46;95064.19;;;24.50;30.93
62978;BME280;49073;42.352;23.808;2023-10-13T12:29:47;95063.09;;;24.61;30.55
62978;BME280;49073;42.352;23.808;2023-10-13T12:32:49;95061.03;;;24.39;30.92
62978;BME280;49073;42.352;23.808;2023-10-13T12:36:08;95054.16;;;24.34;31.77
62978;BME280;49073;42.352;23.808;2023-10-13T12:39:09;95057.34;;;24.33;31.55
62978;BME280;49073;42.352;23.808;2023-10-13T12:42:09;95066.16;;;24.37;30.94
62978;BME280;49073;42.352;23.808;2023-10-13T12:45:28;95060.25;;;24.25;31.41
62978;BME280;49073;42.352;23.808;2023-10-13T12:48:47;95054.69;;;24.29;31.48
62978;BME280;49073;42.352;23.808;2023-10-13T12:52:04;95052.31;;;24.31;31.93
62978;BME280;49073;42.352;23.808;2023-10-13T12:55:16;95051.22;;;24.29;30.87
62978;BME280;49073;42.352;23.808;2023-10-13T12:58:20;95052.63;;;24.33;30.99
62978;BME280;49073;42.352;23.808;2023-10-13T13:01:27;95048.06;;;24.30;31.27
62978;BME280;49073;42.352;23.808;2023-10-13T13:04:33;95056.22;;;24.30;30.73
62978;BME280;49073;42.352;23.808;2023-10-13T13:07:38;95050.56;;;24.24;31.43
62978;BME280;49073;42.352;23.808;2023-10-13T13:10:48;95047.31;;;24.30;31.32
62978;BME280;49073;42.352;23.808;2023-10-13T13:13:49;95044.13;;;24.31;31.52
62978;BME280;49073;42.352;23.808;2023-10-13T13:16:50;95054.06;;;24.38;31.16
62978;BME280;49073;42.352;23.808;2023-10-13T13:19:50;95045.44;;;24.39;31.70
62978;BME280;49073;42.352;23.808;2023-10-13T13:22:53;95045.56;;;24.36;31.53
62978;BME280;49073;42.352;23.808;2023-10-13T13:25:54;95044.25;;;24.28;30.94
62978;BME280;49073;42.352;23.808;2023-10-13T13:28:57;95046.66;;;24.25;30.63
62978;BME280;49073;42.352;23.808;2023-10-13T13:31:57;95051.09;;;24.19;31.89
62978;BME280;49073;42.352;23.808;2023-10-13T13:34:58;95040.66;;;24.31;31.63
62978;BME280;49073;42.352;23.808;2023-10-13T13:38:05;95042.41;;;24.24;31.96
62978;BME280;49073;42.352;23.808;2023-10-13T13:41:22;95042.59;;;24.30;31.28
62978;BME280;49073;42.352;23.808;2023-10-13T13:44:26;95047.19;;;24.33;31.73
62978;BME280;49073;42.352;23.808;2023-10-13T13:47:29;95043.47;;;24.27;31.82
62978;BME280;49073;42.352;23.808;2023-10-13T13:50:30;95034.09;;;24.15;31.13
62978;BME280;49073;42.352;23.808;2023-10-13T13:53:32;95038.78;;;24.15;32.17
62978;BME280;49073;42.352;23.808;2023-10-13T13:56:38;95036.59;;;24.09;32.04
62978;BME280;49073;42.352;23.808;2023-10-13T13:59:39;95045.53;;;24.10;31.73
62978;BME280;49073;42.352;23.808;2023-10-13T14:02:44;95039.19;;;24.13;31.50
62978;BME280;49073;42.352;23.808;2023-10-13T14:05:47;95039.09;;;24.04;32.04
62978;BME280;49073;42.352;23.808;2023-10-13T14:08:52;95034.91;;;23.99;32.12
62978;BME280;49073;42.352;23.808;2023-10-13T14:11:55;95039.78;;;23.91;33.14
62978;BME280;49073;42.352;23.808;2023-10-13T14:15:13;95036.09;;;23.85;33.25
62978;BME280;49073;42.352;23.808;2023-10-13T14:18:24;95048.16;;;23.84;33.54
62978;BME280;49073;42.352;23.808;2023-10-13T14:21:30;95040.94;;;23.77;32.35
62978;BME280;49073;42.352;23.808;2023-10-13T14:24:35;95037.69;;;23.82;32.21
62978;BME280;49073;42.352;23.808;2023-10-13T14:27:43;95042.00;;;23.67;33.11
62978;BME280;49073;42.352;23.808;2023-10-13T14:30:44;95038.16;;;23.51;32.64
62978;BME280;49073;42.352;23.808;2023-10-13T14:33:46;95040.34;;;23.57;32.64
62978;BME280;49073;42.352;23.808;2023-10-13T14:36:47;95038.56;;;23.50;32.81
62978;BME280;49073;42.352;23.808;2023-10-13T14:39:51;95037.38;;;23.51;32.94
62978;BME280;49073;42.352;23.808;2023-10-13T14:42:51;95035.03;;;23.36;33.44
62978;BME280;49073;42.352;23.808;2023-10-13T14:45:55;95030.03;;;23.35;33.62
62978;BME280;49073;42.352;23.808;2023-10-13T14:48:55;95025.69;;;23.21;33.76
62978;BME280;49073;42.352;23.808;2023-10-13T14:51:56;95022.97;;;23.21;33.88
62978;BME280;49073;42.352;23.808;2023-10-13T14:54:56;95037.88;;;23.00;34.42
62978;BME280;49073;42.352;23.808;2023-10-13T14:57:57;95026.31;;;22.95;34.85
62978;BME280;49073;42.352;23.808;2023-10-13T15:00:58;95036.75;;;22.80;35.06
62978;BME280;49073;42.352;23.808;2023-10-13T15:04:01;95032.16;;;22.77;33.93
62978;BME280;49073;42.352;23.808;2023-10-13T15:07:02;95035.56;;;22.65;35.77
62978;BME280;49073;42.352;23.808;2023-10-13T15:10:02;95028.50;;;22.51;36.18
62978;BME280;49073;42.352;23.808;2023-10-13T15:13:03;95048.22;;;22.35;37.39
62978;BME280;49073;42.352;23.808;2023-10-13T15:16:15;95037.81;;;22.13;36.10
62978;BME280;49073;42.352;23.808;2023-10-13T15:19:17;95037.28;;;22.02;37.43
62978;BME280;49073;42.352;23.808;2023-10-13T15:22:17;95036.41;;;21.88;36.57
62978;BME280;49073;42.352;23.808;2023-10-13T15:25:26;95051.59;;;21.62;37.59
62978;BME280;49073;42.352;23.808;2023-10-13T15:28:31;95046.84;;;21.46;37.13
62978;BME280;49073;42.352;23.808;2023-10-13T15:31:32;95052.31;;;21.42;39.77
62978;BME280;49073;42.352;23.808;2023-10-13T15:34:34;95058.00;;;21.28;40.93
62978;BME280;49073;42.352;23.808;2023-10-13T15:37:34;95059.34;;;21.16;40.92
62978;BME280;49073;42.352;23.808;2023-10-13T15:40:45;95060.28;;;20.82;41.99
62978;BME280;49073;42.352;23.808;2023-10-13T15:43:46;95061.09;;;20.51;41.51
62978;BME280;49073;42.352;23.808;2023-10-13T15:46:52;95069.00;;;20.38;42.77
62978;BME280;49073;42.352;23.808;2023-10-13T15:49:52;95061.22;;;20.13;42.85
62978;BME280;49073;42.352;23.808;2023-10-13T15:52:53;95061.06;;;19.92;42.62
62978;BME280;49073;42.352;23.808;2023-10-13T15:55:53;95073.19;;;19.77;41.96
62978;BME280;49073;42.352;23.808;2023-10-13T15:58:54;95063.63;;;19.69;43.17
62978;BME280;49073;42.352;23.808;2023-10-13T16:01:56;95067.88;;;19.66;42.74
62978;BME280;49073;42.352;23.808;2023-10-13T16:04:57;95064.16;;;19.53;43.65
62978;BME280;49073;42.352;23.808;2023-10-13T16:08:01;95071.81;;;19.19;43.48
62978;BME280;49073;42.352;23.808;2023-10-13T16:11:06;95064.28;;;18.96;44.41
62978;BME280;49073;42.352;23.808;2023-10-13T16:14:08;95076.69;;;18.86;44.09
62978;BME280;49073;42.352;23.808;2023-10-13T16:17:15;95076.06;;;18.64;44.80
62978;BME280;49073;42.352;23.808;2023-10-13T16:20:21;95081.56;;;18.50;45.38
62978;BME280;49073;42.352;23.808;2023-10-13T16:23:22;95087.06;;;18.28;45.36
62978;BME280;49073;42.352;23.808;2023-10-13T16:26:24;95079.69;;;18.36;45.04